createdAt,value
2022-08-05T00:02:11.618Z,22.44
2022-08-05T00:04:40.263Z,22.42
2022-08-05T00:07:26.753Z,22.36
2022-08-05T00:09:54.630Z,22.28
2022-08-05T00:12:21.626Z,22.20
2022-08-05T00:14:51.752Z,22.15
2022-08-05T00:17:19.548Z,22.07
2022-08-05T00:20:02.026Z,22.00
2022-08-05T00:22:31.045Z,21.91
2022-08-05T00:24:57.911Z,21.83
2022-08-05T00:27:36.461Z,21.76
2022-08-05T00:30:04.711Z,21.69
2022-08-05T00:32:31.582Z,21.61
2022-08-05T00:35:06.862Z,21.58
2022-08-05T00:37:51.057Z,21.58
2022-08-05T00:40:27.467Z,21.58
2022-08-05T00:42:59.598Z,21.60
2022-08-05T00:45:38.822Z,21.59
2022-08-05T00:48:13.285Z,21.60
2022-08-05T00:50:41.902Z,21.62
2022-08-05T00:54:00.362Z,21.67
2022-08-05T00:55:57.971Z,21.72
2022-08-05T00:58:27.485Z,21.73
2022-08-05T01:00:54.631Z,21.75
2022-08-05T01:03:22.498Z,21.79
2022-08-05T01:05:51.220Z,21.80
2022-08-05T01:08:41.598Z,21.80
2022-08-05T01:11:13.642Z,21.79
2022-08-05T01:13:58.471Z,21.79
2022-08-05T01:16:34.995Z,21.64
2022-08-05T01:19:07.255Z,21.83
2022-08-05T01:21:51.753Z,21.87
2022-08-05T01:24:20.704Z,21.85
2022-08-05T01:27:24.334Z,21.82
2022-08-05T01:29:53.202Z,21.80
2022-08-05T01:32:22.945Z,21.80
2022-08-05T01:34:57.694Z,21.79
2022-08-05T01:37:27.344Z,21.75
2022-08-05T01:39:58.709Z,21.73
2022-08-05T01:42:26.988Z,21.70
2022-08-05T01:44:54.841Z,21.69
2022-08-05T01:47:22.279Z,21.66
2022-08-05T01:50:01.721Z,21.64
2022-08-05T01:52:30.899Z,21.64
2022-08-05T01:55:00.493Z,21.68
2022-08-05T01:58:13.738Z,21.67
2022-08-05T02:00:30.644Z,21.62
2022-08-05T02:02:58.487Z,21.61
2022-08-05T02:05:25.815Z,21.60
2022-08-05T02:07:59.976Z,21.60
2022-08-05T02:10:29.734Z,21.64
2022-08-05T02:13:19.467Z,21.68
2022-08-05T02:15:54.521Z,21.67
2022-08-05T02:21:13.275Z,21.70
2022-08-05T02:23:43.099Z,21.69
2022-08-05T02:26:10.536Z,21.71
2022-08-05T02:28:41.682Z,21.66
2022-08-05T02:31:21.133Z,21.67
2022-08-05T02:33:57.712Z,21.67
2022-08-05T02:36:27.936Z,21.69
2022-08-05T02:38:58.886Z,21.73
2022-08-05T02:41:28.969Z,21.77
2022-08-05T02:44:11.163Z,21.80
2022-08-05T02:46:58.360Z,21.78
2022-08-05T02:49:36.179Z,21.76
2022-08-05T02:52:06.210Z,21.76
2022-08-05T02:54:37.251Z,21.76
2022-08-05T02:57:10.124Z,21.81
2022-08-05T02:59:58.102Z,21.81
2022-08-05T03:02:30.778Z,21.80
2022-08-05T03:04:58.079Z,21.80
2022-08-05T03:08:01.930Z,21.81
2022-08-05T03:10:24.387Z,21.87
2022-08-05T03:12:52.711Z,21.83
2022-08-05T03:15:19.571Z,21.85
2022-08-05T03:17:46.342Z,21.89
2022-08-05T03:20:13.724Z,21.90
2022-08-05T03:22:46.927Z,21.91
2022-08-05T03:26:03.741Z,21.94
2022-08-05T03:28:06.367Z,21.94
2022-08-05T03:30:44.409Z,21.95
2022-08-05T03:33:14.068Z,21.97
2022-08-05T03:35:41.997Z,21.97
2022-08-05T03:38:12.395Z,21.97
2022-08-05T03:40:47.515Z,22.00
2022-08-05T03:44:09.871Z,22.02
2022-08-05T03:46:04.389Z,22.06
2022-08-05T03:48:35.602Z,22.07
2022-08-05T03:52:38.611Z,22.06
2022-08-05T03:55:51.690Z,22.13
2022-08-05T03:56:58.966Z,22.15
2022-08-05T03:59:47.065Z,22.17
2022-08-05T04:02:37.677Z,22.21
2022-08-05T04:05:09.694Z,22.22
2022-08-05T04:07:57.165Z,22.24
2022-08-05T04:10:24.804Z,22.25
2022-08-05T04:12:55.200Z,22.28
2022-08-05T04:15:24.549Z,22.27
2022-08-05T04:17:56.601Z,22.26
2022-08-05T04:20:24.389Z,22.32
2022-08-05T04:22:51.144Z,22.36
2022-08-05T04:25:18.228Z,22.38
2022-08-05T04:27:58.115Z,22.42
2022-08-05T04:30:26.695Z,22.46
2022-08-05T04:32:53.643Z,22.50
2022-08-05T04:35:20.420Z,22.50
2022-08-05T04:38:02.438Z,22.52
2022-08-05T04:40:34.980Z,22.59
2022-08-05T04:43:02.276Z,22.59
2022-08-05T04:45:47.812Z,22.59
2022-08-05T04:48:27.973Z,22.60
2022-08-05T04:51:02.716Z,22.68
2022-08-05T04:53:38.759Z,22.78
2022-08-05T04:56:34.017Z,22.89
2022-08-05T04:58:55.892Z,22.96
2022-08-05T05:01:33.842Z,23.07
2022-08-05T05:04:10.247Z,23.17
2022-08-05T05:06:44.892Z,23.24
2022-08-05T05:09:18.993Z,23.39
2022-08-05T05:11:54.306Z,23.51
2022-08-05T05:14:31.217Z,23.62
2022-08-05T05:17:01.730Z,23.79
2022-08-05T05:19:37.126Z,23.93
2022-08-05T05:22:23.653Z,23.94
2022-08-05T05:24:58.091Z,24.07
2022-08-05T05:27:41.245Z,24.08
2022-08-05T05:30:15.701Z,24.07
2022-08-05T05:33:00.986Z,24.22
2022-08-05T05:35:34.307Z,24.29
2022-08-05T05:38:08.908Z,24.42
2022-08-05T05:40:36.454Z,24.57
2022-08-05T05:43:03.267Z,24.74
2022-08-05T05:45:30.181Z,24.95
2022-08-05T05:48:06.424Z,25.02
2022-08-05T05:50:41.252Z,25.13
2022-08-05T05:53:21.424Z,25.36
2022-08-05T05:55:52.294Z,25.43
2022-08-05T05:58:30.209Z,25.42
2022-08-05T06:01:12.237Z,25.49
2022-08-05T06:04:00.647Z,25.68
2022-08-05T06:06:31.067Z,25.90
2022-08-05T06:09:03.949Z,25.91
2022-08-05T06:11:31.809Z,25.81
2022-08-05T06:14:00.367Z,25.73
2022-08-05T06:16:36.942Z,25.79
2022-08-05T06:21:49.719Z,25.90
2022-08-05T06:24:17.679Z,26.07
2022-08-05T06:26:56.325Z,26.06
2022-08-05T06:29:48.914Z,26.09
2022-08-05T06:32:21.419Z,26.24
2022-08-05T06:34:53.563Z,26.25
2022-08-05T06:37:58.326Z,26.36
2022-08-05T06:40:10.718Z,26.49
2022-08-05T06:42:39.756Z,26.56
2022-08-05T06:45:08.847Z,26.75
2022-08-05T06:48:47.377Z,26.88
2022-08-05T06:50:23.840Z,26.92
2022-08-05T06:53:03.521Z,26.98
2022-08-05T06:55:37.611Z,27.12
2022-08-05T06:58:30.203Z,27.08
2022-08-05T07:00:51.798Z,27.13
2022-08-05T07:03:18.728Z,27.19
2022-08-05T07:05:46.217Z,27.07
2022-08-05T07:08:16.477Z,27.01
2022-08-05T07:10:52.271Z,27.07
2022-08-05T07:13:57.897Z,26.95
2022-08-05T07:18:02.206Z,27.10
2022-08-05T07:20:29.834Z,27.28
2022-08-05T07:22:22.157Z,27.41
2022-08-05T07:24:56.693Z,27.51
2022-08-05T07:27:27.684Z,27.73
2022-08-05T07:30:24.621Z,27.83
2022-08-05T07:32:57.536Z,27.80
2022-08-05T07:35:56.019Z,27.92
2022-08-05T07:38:12.417Z,27.95
2022-08-05T07:40:55.659Z,28.06
2022-08-05T07:43:28.611Z,27.97
2022-08-05T07:45:58.989Z,27.92
2022-08-05T07:49:02.475Z,28.18
2022-08-05T07:51:36.038Z,28.42
2022-08-05T07:54:05.257Z,28.63
2022-08-05T07:57:02.611Z,28.55
2022-08-05T07:59:23.239Z,28.42
2022-08-05T08:01:58.541Z,28.50
2022-08-05T08:04:37.911Z,28.45
2022-08-05T08:07:07.551Z,28.59
2022-08-05T08:09:37.507Z,28.69
2022-08-05T08:12:14.318Z,28.94
2022-08-05T08:14:47.114Z,29.12
2022-08-05T08:17:16.001Z,29.19
2022-08-05T08:20:21.548Z,29.31
2022-08-05T08:22:31.010Z,29.66
2022-08-05T08:25:03.270Z,29.87
2022-08-05T08:27:40.429Z,30.11
2022-08-05T08:30:29.976Z,30.56
2022-08-05T08:33:04.605Z,30.71
2022-08-05T08:35:41.472Z,30.87
2022-08-05T08:38:35.913Z,31.01
2022-08-05T08:41:05.642Z,30.87
2022-08-05T08:45:24.099Z,31.25
2022-08-05T08:46:21.061Z,31.86
2022-08-05T08:49:06.229Z,31.82
2022-08-05T08:52:02.850Z,31.84
2022-08-05T08:54:27.247Z,32.01
2022-08-05T08:56:56.564Z,32.11
2022-08-05T08:59:27.752Z,32.37
2022-08-05T09:02:05.970Z,32.64
2022-08-05T09:04:58.178Z,32.63
2022-08-05T09:07:28.845Z,32.95
2022-08-05T09:09:56.549Z,33.32
2022-08-05T09:12:27.755Z,33.40
2022-08-05T09:15:03.968Z,33.63
2022-08-05T09:17:41.417Z,33.56
2022-08-05T09:20:10.685Z,33.60
2022-08-05T09:22:56.261Z,33.94
2022-08-05T09:26:01.831Z,34.12
2022-08-05T09:28:31.503Z,34.01
2022-08-05T09:31:43.286Z,34.13
2022-08-05T09:33:53.263Z,34.27
2022-08-05T09:36:20.512Z,34.58
2022-08-05T09:38:56.568Z,34.65
2022-08-05T09:41:24.101Z,35.00
2022-08-05T09:43:55.991Z,35.24
2022-08-05T09:46:28.944Z,35.08
2022-08-05T09:49:07.532Z,34.97
2022-08-05T09:51:49.418Z,35.05
2022-08-05T09:54:30.108Z,35.69
2022-08-05T09:57:01.590Z,35.98
2022-08-05T09:59:29.128Z,36.53
2022-08-05T10:02:04.091Z,36.61
2022-08-05T10:04:42.328Z,36.67
2022-08-05T10:07:20.213Z,36.64
2022-08-05T10:10:14.362Z,36.47
2022-08-05T10:12:54.562Z,37.08
2022-08-05T10:15:23.610Z,37.37
2022-08-05T10:18:11.893Z,36.97
2022-08-05T10:20:43.018Z,37.00
2022-08-05T10:23:34.353Z,37.18
2022-08-05T10:26:14.225Z,36.94
2022-08-05T10:28:42.922Z,37.29
2022-08-05T10:32:54.909Z,37.83
2022-08-05T10:33:58.046Z,38.22
2022-08-05T10:36:26.044Z,38.65
2022-08-05T10:38:55.704Z,38.38
2022-08-05T10:41:27.552Z,37.68
2022-08-05T10:44:13.186Z,37.83
2022-08-05T10:46:43.867Z,38.26
2022-08-05T10:49:16.634Z,38.51
2022-08-05T10:52:00.468Z,38.69
2022-08-05T10:54:47.111Z,38.65
2022-08-05T10:57:32.348Z,38.63
2022-08-05T11:00:19.573Z,39.15
2022-08-05T11:03:23.284Z,38.37
2022-08-05T11:06:03.809Z,37.67
2022-08-05T11:08:39.125Z,38.48
2022-08-05T11:11:52.935Z,38.00
2022-08-05T11:15:01.128Z,37.31
2022-08-05T11:17:59.689Z,35.70
2022-08-05T11:20:34.687Z,37.06
2022-08-05T11:23:10.564Z,36.69
2022-08-05T11:26:05.630Z,36.61
2022-08-05T11:28:28.335Z,35.39
2022-08-05T11:30:58.770Z,35.94
2022-08-05T11:33:43.965Z,36.91
2022-08-05T11:36:14.808Z,37.73
2022-08-05T11:38:45.915Z,38.51
2022-08-05T11:41:56.546Z,37.62
2022-08-05T11:44:08.335Z,36.33
2022-08-05T11:46:35.557Z,35.98
2022-08-05T11:49:03.431Z,36.92
2022-08-05T11:51:49.619Z,38.34
2022-08-05T11:54:33.537Z,39.52
2022-08-05T11:57:07.893Z,39.82
2022-08-05T11:59:50.679Z,39.46
2022-08-05T12:02:23.889Z,39.72
2022-08-05T12:04:59.870Z,39.82
2022-08-05T12:08:09.216Z,39.64
2022-08-05T12:10:17.011Z,39.99
2022-08-05T12:12:58.265Z,40.86
2022-08-05T12:15:33.278Z,41.22
2022-08-05T12:18:10.697Z,41.36
2022-08-05T12:20:39.049Z,40.81
2022-08-05T12:23:09.990Z,37.79
2022-08-05T12:25:57.292Z,37.65
2022-08-05T12:28:42.385Z,39.43
2022-08-05T12:31:23.107Z,40.84
2022-08-05T12:33:50.798Z,39.46
2022-08-05T12:36:30.729Z,37.94
2022-08-05T12:39:01.268Z,37.18
2022-08-05T12:41:34.731Z,37.58
2022-08-05T12:44:02.552Z,38.10
2022-08-05T12:46:31.166Z,38.52
2022-08-05T12:49:01.661Z,38.13
2022-08-05T12:52:14.032Z,39.81
2022-08-05T12:54:35.730Z,40.63
2022-08-05T12:57:10.866Z,41.35
2022-08-05T13:01:56.797Z,40.43
2022-08-05T13:02:35.704Z,40.57
2022-08-05T13:05:06.058Z,41.07
2022-08-05T13:07:59.042Z,41.35
2022-08-05T13:10:20.555Z,41.57
2022-08-05T13:12:57.432Z,41.89
2022-08-05T13:15:41.736Z,42.36
2022-08-05T13:18:20.788Z,40.67
2022-08-05T13:20:49.270Z,41.67
2022-08-05T13:23:18.289Z,42.25
2022-08-05T13:25:51.997Z,42.90
2022-08-05T13:28:28.285Z,42.48
2022-08-05T13:30:55.632Z,39.47
2022-08-05T13:34:22.287Z,38.22
2022-08-05T13:36:14.408Z,36.86
2022-08-05T13:38:42.241Z,36.01
2022-08-05T13:41:11.738Z,35.42
2022-08-05T13:43:45.341Z,34.94
2022-08-05T13:46:44.002Z,34.47
2022-08-05T13:49:11.776Z,33.95
2022-08-05T13:51:40.986Z,33.66
2022-08-05T13:54:15.025Z,33.34
2022-08-05T13:56:51.575Z,33.05
2022-08-05T13:59:21.131Z,32.93
2022-08-05T14:01:58.360Z,32.75
2022-08-05T14:04:51.589Z,32.52
2022-08-05T14:07:25.398Z,32.54
2022-08-05T14:10:08.358Z,32.63
2022-08-05T14:12:35.546Z,32.84
2022-08-05T14:16:05.913Z,32.78
2022-08-05T14:17:49.946Z,33.01
2022-08-05T14:20:18.388Z,34.72
2022-08-05T14:22:50.116Z,34.68
2022-08-05T14:28:26.216Z,34.93
2022-08-05T14:30:57.118Z,37.03
2022-08-05T14:33:24.459Z,38.20
2022-08-05T14:35:53.929Z,38.69
2022-08-05T14:38:32.146Z,39.42
2022-08-05T14:41:05.585Z,39.94
2022-08-05T14:44:02.059Z,40.06
2022-08-05T14:49:09.667Z,40.14
2022-08-05T14:54:28.368Z,39.88
2022-08-05T14:56:57.410Z,39.90
2022-08-05T14:59:25.473Z,39.79
2022-08-05T15:01:56.871Z,39.41
2022-08-05T15:04:27.466Z,39.43
2022-08-05T15:06:56.482Z,39.52
2022-08-05T15:09:54.043Z,38.19
2022-08-05T15:12:16.897Z,38.60
2022-08-05T15:17:47.271Z,38.65
2022-08-05T15:20:19.393Z,38.78
2022-08-05T15:22:54.378Z,38.69
2022-08-05T15:25:23.547Z,38.64
2022-08-05T15:28:08.592Z,37.30
2022-08-05T15:30:40.466Z,37.64
2022-08-05T15:33:07.362Z,37.77
2022-08-05T15:35:36.170Z,37.73
2022-08-05T15:38:35.980Z,37.66
2022-08-05T15:41:22.491Z,37.67
2022-08-05T15:43:47.072Z,37.63
2022-08-05T15:46:14.271Z,37.51
2022-08-05T15:48:52.739Z,37.46
2022-08-05T15:52:09.933Z,35.86
2022-08-05T15:54:16.167Z,33.99
2022-08-05T15:56:43.531Z,32.92
2022-08-05T15:59:22.244Z,32.24
2022-08-05T16:01:52.796Z,31.71
2022-08-05T16:04:21.029Z,31.35
2022-08-05T16:06:54.245Z,31.09
2022-08-05T16:09:23.085Z,30.85
2022-08-05T16:11:53.034Z,30.67
2022-08-05T16:14:21.272Z,30.53
2022-08-05T16:16:49.343Z,30.32
2022-08-05T16:20:03.441Z,30.17
2022-08-05T16:22:06.698Z,29.90
2022-08-05T16:24:40.461Z,29.70
2022-08-05T16:27:09.563Z,29.65
2022-08-05T16:29:37.299Z,29.61
2022-08-05T16:32:09.499Z,29.40
2022-08-05T16:34:42.601Z,29.28
2022-08-05T16:38:03.418Z,29.09
2022-08-05T16:40:04.584Z,28.92
2022-08-05T16:42:34.536Z,28.78
2022-08-05T16:46:02.900Z,28.74
2022-08-05T16:47:53.367Z,28.53
2022-08-05T16:50:25.551Z,28.43
2022-08-05T16:52:52.746Z,28.29
2022-08-05T16:55:23.277Z,28.26
2022-08-05T16:57:53.602Z,28.10
2022-08-05T17:00:34.851Z,28.01
2022-08-05T17:03:15.450Z,27.89
2022-08-05T17:05:51.854Z,27.78
2022-08-05T17:08:35.728Z,27.69
2022-08-05T17:11:16.659Z,27.54
2022-08-05T17:13:44.704Z,27.43
2022-08-05T17:16:33.105Z,27.33
2022-08-05T17:18:58.992Z,27.17
2022-08-05T17:21:35.655Z,27.04
2022-08-05T17:24:30.248Z,26.97
2022-08-05T17:26:57.599Z,26.69
2022-08-05T17:29:33.989Z,26.55
2022-08-05T17:32:11.466Z,26.42
2022-08-05T17:34:47.759Z,26.20
2022-08-05T17:37:27.268Z,26.07
2022-08-05T17:40:04.057Z,25.90
2022-08-05T17:42:32.412Z,25.82
2022-08-05T17:45:17.669Z,25.67
2022-08-05T17:47:52.918Z,25.48
2022-08-05T17:50:28.340Z,25.30
2022-08-05T17:53:01.605Z,25.15
2022-08-05T17:55:37.336Z,25.00
2022-08-05T17:58:06.934Z,24.90
2022-08-05T18:00:36.263Z,24.84
2022-08-05T18:03:11.399Z,24.71
2022-08-05T18:05:39.265Z,24.64
2022-08-05T18:08:06.226Z,24.55
2022-08-05T18:10:33.817Z,24.53
2022-08-05T18:13:07.717Z,24.53
2022-08-05T18:15:39.829Z,24.52
2022-08-05T18:18:11.126Z,24.57
2022-08-05T18:20:39.155Z,24.55
2022-08-05T18:23:09.029Z,24.58
2022-08-05T18:25:39.730Z,24.64
2022-08-05T18:28:16.258Z,24.60
2022-08-05T18:30:50.925Z,24.50
2022-08-05T18:33:24.049Z,24.39
2022-08-05T18:36:03.570Z,24.27
2022-08-05T18:38:36.345Z,24.17
2022-08-05T18:41:57.704Z,24.02
2022-08-05T18:43:56.543Z,23.84
2022-08-05T18:46:25.934Z,23.73
2022-08-05T18:48:56.035Z,23.68
2022-08-05T18:52:04.189Z,23.59
2022-08-05T18:54:41.295Z,23.51
2022-08-05T18:57:15.285Z,23.38
2022-08-05T19:00:02.353Z,23.28
2022-08-05T19:02:33.482Z,23.17
2022-08-05T19:06:05.512Z,23.10
2022-08-05T19:07:50.731Z,23.03
2022-08-05T19:10:17.901Z,23.01
2022-08-05T19:12:46.204Z,23.04
2022-08-05T19:15:56.788Z,23.04
2022-08-05T19:18:10.193Z,23.01
2022-08-05T19:20:41.841Z,22.99
2022-08-05T19:24:04.208Z,23.04
2022-08-05T19:26:02.223Z,23.02
2022-08-05T19:28:31.042Z,23.06
2022-08-05T19:31:01.152Z,23.05
2022-08-05T19:33:35.993Z,23.11
2022-08-05T19:36:07.131Z,23.02
2022-08-05T19:38:36.358Z,23.04
2022-08-05T19:41:07.303Z,22.99
2022-08-05T19:46:29.171Z,23.04
2022-08-05T19:49:02.060Z,23.08
2022-08-05T19:52:05.861Z,23.02
2022-08-05T19:54:26.938Z,22.94
2022-08-05T19:56:58.962Z,22.92
2022-08-05T19:59:53.995Z,23.02
2022-08-05T20:02:17.687Z,23.13
2022-08-05T20:04:46.068Z,23.21
2022-08-05T20:07:13.753Z,23.23
2022-08-05T20:09:54.788Z,23.23
2022-08-05T20:12:24.590Z,23.21
2022-08-05T20:14:59.552Z,23.12
2022-08-05T20:17:26.382Z,23.09
2022-08-05T20:19:57.073Z,23.05
2022-08-05T20:22:27.273Z,23.01
2022-08-05T20:24:54.931Z,22.93
2022-08-05T20:27:26.820Z,22.84
2022-08-05T20:29:57.771Z,22.75
2022-08-05T20:32:26.122Z,22.78
2022-08-05T20:34:53.155Z,22.72
2022-08-05T20:38:04.658Z,22.65
2022-08-05T20:40:10.217Z,22.58
2022-08-05T20:42:37.703Z,22.61
2022-08-05T20:45:06.585Z,22.62
2022-08-05T20:47:33.495Z,22.54
2022-08-05T20:50:11.416Z,22.46
2022-08-05T20:52:39.403Z,22.43
2022-08-05T20:55:54.881Z,22.42
2022-08-05T20:57:56.004Z,22.41
2022-08-05T21:00:49.728Z,22.40
2022-08-05T21:03:16.838Z,22.38
2022-08-05T21:05:53.752Z,22.31
2022-08-05T21:08:35.870Z,22.23
2022-08-05T21:11:51.649Z,22.25
2022-08-05T21:14:00.644Z,22.23
2022-08-05T21:16:38.492Z,22.16
2022-08-05T21:19:05.776Z,22.12
2022-08-05T21:21:39.716Z,22.09
2022-08-05T21:24:12.533Z,22.08
2022-08-05T21:26:41.332Z,22.12
2022-08-05T21:29:09.978Z,22.14
2022-08-05T21:31:41.466Z,22.13
2022-08-05T21:34:10.583Z,22.12
2022-08-05T21:36:38.005Z,22.16
2022-08-05T21:39:05.005Z,22.16
2022-08-05T21:41:35.702Z,22.13
2022-08-05T21:44:05.391Z,22.10
2022-08-05T21:46:34.426Z,22.13
2022-08-05T21:49:03.037Z,22.12
2022-08-05T21:52:22.459Z,22.10
2022-08-05T21:54:28.126Z,22.10
2022-08-05T21:57:29.644Z,22.05
2022-08-05T22:00:02.035Z,22.06
2022-08-05T22:02:39.824Z,22.10
2022-08-05T22:05:09.225Z,22.07
2022-08-05T22:07:39.864Z,22.05
2022-08-05T22:10:27.105Z,22.04
2022-08-05T22:12:59.073Z,22.03
2022-08-05T22:16:01.396Z,21.99
2022-08-05T22:18:25.721Z,22.01
2022-08-05T22:20:52.857Z,21.97
2022-08-05T22:24:00.926Z,21.96
2022-08-05T22:26:49.921Z,21.94
2022-08-05T22:29:17.654Z,21.98
2022-08-05T22:31:45.928Z,22.00
2022-08-05T22:34:28.237Z,21.96
2022-08-05T22:36:56.687Z,21.91
2022-08-05T22:39:29.794Z,21.85
2022-08-05T22:42:09.233Z,21.81
2022-08-05T22:44:38.999Z,21.73
2022-08-05T22:47:06.676Z,21.70
2022-08-05T22:50:20.400Z,21.62
2022-08-05T22:52:32.237Z,21.61
2022-08-05T22:55:01.757Z,21.53
2022-08-05T22:57:36.187Z,21.43
2022-08-05T23:00:11.349Z,21.38
2022-08-05T23:02:46.853Z,21.37
2022-08-05T23:05:14.868Z,21.36
2022-08-05T23:07:45.260Z,21.30
2022-08-05T23:10:19.533Z,21.28
2022-08-05T23:12:47.611Z,21.27
2022-08-05T23:15:18.874Z,21.21
2022-08-05T23:18:01.435Z,21.17
2022-08-05T23:20:30.158Z,21.12
2022-08-05T23:22:58.561Z,21.16
2022-08-05T23:25:52.099Z,21.14
2022-08-05T23:28:12.722Z,21.12
2022-08-05T23:30:43.455Z,21.08
2022-08-05T23:33:16.008Z,21.05
2022-08-05T23:35:49.195Z,21.00
2022-08-05T23:38:18.986Z,20.98
2022-08-05T23:40:50.147Z,20.97
2022-08-05T23:43:25.648Z,20.97
2022-08-05T23:46:20.185Z,20.96
2022-08-05T23:49:00.346Z,20.97
2022-08-05T23:51:52.485Z,20.94
2022-08-05T23:54:29.992Z,20.94
2022-08-05T23:57:03.742Z,20.96
2022-08-05T23:59:37.604Z,20.90
